createdAt,value
2022-08-28T00:01:35.343Z,60.49
2022-08-28T00:06:38.057Z,60.66
2022-08-28T00:11:41.088Z,61.00
2022-08-28T00:16:43.827Z,61.31
2022-08-28T00:21:47.967Z,61.58
2022-08-28T00:27:09.382Z,61.68
2022-08-28T00:32:12.220Z,61.85
2022-08-28T00:37:15.330Z,62.23
2022-08-28T00:42:18.493Z,62.11
2022-08-28T00:47:26.373Z,62.23
2022-08-28T00:52:29.551Z,62.22
2022-08-28T00:57:40.991Z,62.40
2022-08-28T01:02:44.243Z,62.57
2022-08-28T01:07:48.037Z,63.05
2022-08-28T01:12:53.225Z,63.44
2022-08-28T01:18:05.939Z,63.85
2022-08-28T01:23:33.459Z,64.00
2022-08-28T01:28:36.310Z,64.65
2022-08-28T01:33:42.641Z,65.52
2022-08-28T01:38:49.777Z,65.54
2022-08-28T01:43:54.026Z,65.38
2022-08-28T01:48:57.035Z,65.11
2022-08-28T01:53:59.743Z,65.00
2022-08-28T01:59:06.705Z,65.21
2022-08-28T02:04:11.252Z,65.40
2022-08-28T02:09:14.521Z,65.63
2022-08-28T02:14:17.829Z,65.73
2022-08-28T02:19:21.011Z,65.71
2022-08-28T02:24:24.063Z,65.59
2022-08-28T02:29:27.328Z,65.66
2022-08-28T02:34:30.085Z,65.34
2022-08-28T02:39:32.823Z,64.85
2022-08-28T02:44:35.915Z,64.09
2022-08-28T02:49:38.676Z,63.58
2022-08-28T02:54:41.415Z,63.26
2022-08-28T02:59:44.145Z,63.36
2022-08-28T03:04:46.877Z,63.53
2022-08-28T03:09:50.591Z,63.90
2022-08-28T03:14:54.381Z,64.19
2022-08-28T03:19:57.163Z,64.72
2022-08-28T03:25:00.200Z,65.07
2022-08-28T03:30:04.279Z,65.51
2022-08-28T03:35:07.925Z,65.50
2022-08-28T03:40:12.051Z,65.64
2022-08-28T03:45:15.195Z,65.47
2022-08-28T03:50:18.599Z,65.46
2022-08-28T03:55:23.046Z,66.03
2022-08-28T04:00:25.917Z,66.22
2022-08-28T04:05:28.671Z,65.97
2022-08-28T04:10:33.197Z,65.85
2022-08-28T04:15:36.307Z,65.72
2022-08-28T04:20:39.314Z,65.75
2022-08-28T04:25:42.260Z,65.56
2022-08-28T04:30:44.940Z,65.52
2022-08-28T04:35:47.760Z,65.60
2022-08-28T04:40:50.529Z,65.57
2022-08-28T04:45:53.256Z,66.03
2022-08-28T04:50:56.086Z,65.79
2022-08-28T04:56:00.653Z,65.32
2022-08-28T05:01:09.340Z,64.86
2022-08-28T05:06:14.359Z,64.95
2022-08-28T05:11:33.530Z,64.63
2022-08-28T05:16:43.360Z,64.87
2022-08-28T05:21:47.390Z,64.85
2022-08-28T05:26:50.628Z,65.12
2022-08-28T05:31:53.632Z,65.01
2022-08-28T05:36:56.654Z,65.54
2022-08-28T05:41:59.377Z,65.51
2022-08-28T05:47:03.070Z,65.51
2022-08-28T05:52:05.828Z,65.72
2022-08-28T05:57:08.516Z,65.58
2022-08-28T06:02:11.320Z,65.81
2022-08-28T06:07:15.612Z,65.68
2022-08-28T06:12:18.300Z,65.46
2022-08-28T06:17:23.691Z,64.98
2022-08-28T06:22:26.784Z,64.48
2022-08-28T06:27:31.221Z,63.84
2022-08-28T06:32:33.964Z,63.37
2022-08-28T06:37:36.850Z,62.67
2022-08-28T06:42:39.829Z,62.09
2022-08-28T06:47:42.851Z,61.81
2022-08-28T06:52:45.587Z,60.57
2022-08-28T06:57:48.288Z,59.96
2022-08-28T07:02:51.054Z,59.26
2022-08-28T07:07:54.729Z,58.59
2022-08-28T07:12:57.968Z,57.56
2022-08-28T07:18:00.827Z,56.83
2022-08-28T07:23:04.798Z,55.98
2022-08-28T07:28:08.887Z,55.27
2022-08-28T07:33:12.420Z,55.52
2022-08-28T07:38:15.296Z,54.85
2022-08-28T07:43:36.929Z,54.19
2022-08-28T07:48:41.441Z,53.42
2022-08-28T07:53:44.155Z,51.88
2022-08-28T07:58:48.574Z,51.48
2022-08-28T08:03:51.682Z,50.26
2022-08-28T08:09:00.773Z,49.63
2022-08-28T08:14:05.699Z,50.23
2022-08-28T08:19:10.507Z,49.87
2022-08-28T08:24:21.128Z,48.76
2022-08-28T08:29:24.643Z,48.28
2022-08-28T08:34:27.377Z,47.85
2022-08-28T08:39:31.909Z,47.22
2022-08-28T08:44:42.762Z,45.84
2022-08-28T08:49:48.441Z,45.50
2022-08-28T08:55:15.106Z,43.92
2022-08-28T09:00:19.257Z,42.87
2022-08-28T09:05:37.694Z,42.98
2022-08-28T09:10:46.308Z,41.31
2022-08-28T09:15:50.987Z,40.92
2022-08-28T09:20:55.801Z,40.40
2022-08-28T09:26:01.610Z,39.54
2022-08-28T09:31:09.021Z,39.46
2022-08-28T09:36:27.022Z,37.25
2022-08-28T09:41:48.632Z,36.89
2022-08-28T09:46:52.442Z,36.95
2022-08-28T09:51:59.521Z,36.67
2022-08-28T09:57:03.672Z,34.85
2022-08-28T10:02:41.021Z,32.87
2022-08-28T10:07:55.852Z,33.04
2022-08-28T10:13:17.964Z,32.26
2022-08-28T10:18:26.817Z,31.61
2022-08-28T10:24:06.186Z,31.51
2022-08-28T10:29:43.008Z,31.77
2022-08-28T10:35:12.111Z,31.15
2022-08-28T10:40:21.960Z,29.93
2022-08-28T10:45:26.523Z,29.34
2022-08-28T10:50:42.265Z,29.25
2022-08-28T10:56:00.123Z,28.64
2022-08-28T11:01:09.023Z,29.19
2022-08-28T11:06:30.649Z,29.16
2022-08-28T11:11:46.840Z,28.64
2022-08-28T11:16:51.436Z,29.11
2022-08-28T11:22:04.758Z,28.40
2022-08-28T11:27:22.287Z,28.81
2022-08-28T11:32:33.738Z,27.52
2022-08-28T11:37:41.290Z,26.61
2022-08-28T11:42:48.810Z,26.59
2022-08-28T11:47:56.430Z,27.38
2022-08-28T11:53:32.043Z,26.53
2022-08-28T11:58:40.899Z,25.65
2022-08-28T12:03:58.259Z,24.88
2022-08-28T12:09:03.682Z,24.55
2022-08-28T12:14:11.303Z,24.85
2022-08-28T12:19:55.658Z,25.55
2022-08-28T12:25:03.336Z,25.62
2022-08-28T12:30:06.768Z,25.53
2022-08-28T12:35:23.059Z,25.03
2022-08-28T12:40:38.088Z,24.89
2022-08-28T12:45:57.421Z,24.73
2022-08-28T12:51:19.914Z,24.80
2022-08-28T12:56:24.797Z,24.01
2022-08-28T13:01:31.795Z,24.39
2022-08-28T13:06:38.194Z,24.39
2022-08-28T13:11:47.303Z,24.80
2022-08-28T13:16:50.459Z,26.38
2022-08-28T13:21:59.040Z,26.36
2022-08-28T13:27:16.812Z,27.14
2022-08-28T13:32:19.798Z,27.62
2022-08-28T13:37:45.565Z,26.62
2022-08-28T13:42:48.992Z,25.76
2022-08-28T13:47:51.754Z,26.12
2022-08-28T13:52:55.504Z,27.46
2022-08-28T13:57:58.204Z,28.35
2022-08-28T14:03:19.470Z,27.84
2022-08-28T14:08:22.541Z,29.58
2022-08-28T14:13:27.703Z,29.66
2022-08-28T14:18:30.534Z,28.77
2022-08-28T14:23:33.674Z,29.60
2022-08-28T14:28:36.528Z,30.43
2022-08-28T14:33:39.241Z,30.54
2022-08-28T14:38:44.494Z,30.62
2022-08-28T14:43:49.511Z,30.96
2022-08-28T14:48:52.502Z,31.16
2022-08-28T14:53:55.173Z,30.51
2022-08-28T14:58:59.949Z,29.97
2022-08-28T15:04:07.742Z,30.17
2022-08-28T15:09:13.258Z,28.94
2022-08-28T15:14:16.185Z,26.88
2022-08-28T15:19:19.601Z,26.57
2022-08-28T15:24:26.472Z,26.82
2022-08-28T15:29:30.069Z,26.76
2022-08-28T15:34:32.916Z,27.33
2022-08-28T15:39:54.105Z,27.81
2022-08-28T15:44:57.100Z,28.23
2022-08-28T15:50:00.839Z,28.80
2022-08-28T15:55:06.341Z,29.45
2022-08-28T16:00:10.578Z,30.32
2022-08-28T16:05:13.376Z,33.01
2022-08-28T16:10:17.817Z,36.37
2022-08-28T16:15:21.472Z,39.92
2022-08-28T16:20:25.321Z,42.51
2022-08-28T16:25:28.476Z,44.28
2022-08-28T16:30:32.670Z,46.64
2022-08-28T16:35:47.926Z,48.42
2022-08-28T16:40:58.440Z,50.48
2022-08-28T16:46:01.138Z,52.12
2022-08-28T16:51:04.083Z,53.75
2022-08-28T16:56:09.085Z,55.68
2022-08-28T17:01:13.563Z,57.42
2022-08-28T17:06:20.480Z,59.19
2022-08-28T17:11:24.256Z,60.83
2022-08-28T17:16:29.883Z,61.76
2022-08-28T17:21:51.433Z,62.83
2022-08-28T17:26:54.645Z,63.23
2022-08-28T17:31:58.097Z,63.65
2022-08-28T17:37:01.420Z,64.46
2022-08-28T17:42:04.329Z,64.90
2022-08-28T17:47:07.097Z,65.19
2022-08-28T17:52:09.868Z,65.66
2022-08-28T17:57:14.150Z,66.08
2022-08-28T18:02:17.209Z,66.44
2022-08-28T18:07:20.197Z,66.95
2022-08-28T18:12:26.491Z,67.33
2022-08-28T18:17:29.375Z,67.26
2022-08-28T18:22:32.101Z,67.33
2022-08-28T18:27:35.103Z,67.37
2022-08-28T18:32:37.801Z,67.42
2022-08-28T18:37:40.805Z,67.61
2022-08-28T18:42:43.961Z,68.09
2022-08-28T18:47:46.779Z,68.09
2022-08-28T18:52:51.573Z,68.63
2022-08-28T18:57:54.366Z,68.79
2022-08-28T19:02:59.210Z,69.05
2022-08-28T19:08:02.223Z,69.39
2022-08-28T19:13:05.839Z,69.69
2022-08-28T19:18:08.874Z,70.07
2022-08-28T19:23:15.517Z,70.19
2022-08-28T19:28:20.679Z,70.63
2022-08-28T19:33:23.378Z,70.96
2022-08-28T19:38:26.224Z,71.03
2022-08-28T19:43:41.599Z,71.19
2022-08-28T19:48:47.018Z,71.35
2022-08-28T19:53:59.062Z,71.62
2022-08-28T19:59:06.184Z,71.66
2022-08-28T20:04:13.442Z,71.60
2022-08-28T20:09:17.369Z,71.67
2022-08-28T20:14:21.392Z,72.10
2022-08-28T20:19:24.149Z,72.12
2022-08-28T20:24:28.221Z,71.95
2022-08-28T20:29:31.939Z,72.02
2022-08-28T20:34:34.704Z,72.15
2022-08-28T20:39:41.541Z,72.43
2022-08-28T20:44:44.225Z,72.45
2022-08-28T20:49:46.907Z,72.64
2022-08-28T20:54:49.924Z,72.78
2022-08-28T20:59:54.254Z,72.91
2022-08-28T21:04:58.194Z,73.27
2022-08-28T21:10:04.968Z,73.51
2022-08-28T21:15:12.582Z,73.98
2022-08-28T21:20:16.243Z,74.47
2022-08-28T21:25:20.838Z,74.92
2022-08-28T21:30:23.745Z,75.29
2022-08-28T21:35:33.053Z,76.39
2022-08-28T21:40:35.830Z,77.63
2022-08-28T21:45:38.714Z,78.44
2022-08-28T21:50:44.980Z,79.10
2022-08-28T21:55:49.643Z,79.92
2022-08-28T22:00:55.166Z,80.01
2022-08-28T22:05:58.324Z,80.32
2022-08-28T22:11:01.016Z,81.01
2022-08-28T22:16:04.975Z,81.84
2022-08-28T22:21:31.555Z,82.38
2022-08-28T22:26:35.051Z,82.70
2022-08-28T22:31:45.521Z,82.80
2022-08-28T22:36:48.979Z,83.08
2022-08-28T22:41:51.670Z,83.77
2022-08-28T22:46:54.586Z,84.54
2022-08-28T22:51:57.557Z,85.10
2022-08-28T22:57:00.267Z,85.85
2022-08-28T23:02:04.199Z,86.20
2022-08-28T23:07:06.932Z,86.60
2022-08-28T23:12:09.789Z,86.85
2022-08-28T23:17:12.903Z,86.81
2022-08-28T23:22:15.958Z,87.10
2022-08-28T23:27:35.829Z,87.04
2022-08-28T23:32:39.492Z,87.12
2022-08-28T23:37:44.558Z,87.57
2022-08-28T23:42:53.002Z,87.92
2022-08-28T23:47:55.918Z,87.36
2022-08-28T23:52:59.105Z,87.24
2022-08-28T23:58:04.152Z,86.98
